createdAt,value
2019-05-29T00:00:03.009Z,87.50
2019-05-29T00:02:31.260Z,87.30
2019-05-29T00:04:59.563Z,87.40
2019-05-29T00:07:27.865Z,89.00
2019-05-29T00:09:56.121Z,87.50
2019-05-29T00:12:24.380Z,87.10
2019-05-29T00:14:52.628Z,86.40
2019-05-29T00:17:20.872Z,87.30
2019-05-29T00:19:49.134Z,85.70
2019-05-29T00:22:18.419Z,86.20
2019-05-29T00:24:46.913Z,86.70
2019-05-29T00:27:15.612Z,86.70
2019-05-29T00:29:43.992Z,87.50
2019-05-29T00:32:13.434Z,87.80
2019-05-29T00:34:42.031Z,88.20
2019-05-29T00:37:10.500Z,88.70
2019-05-29T00:39:39.052Z,88.20
2019-05-29T00:42:07.313Z,87.90
2019-05-29T00:44:35.565Z,85.70
2019-05-29T00:47:03.851Z,87.60
2019-05-29T00:49:32.157Z,85.80
2019-05-29T00:52:00.395Z,85.60
2019-05-29T00:54:28.642Z,86.00
2019-05-29T00:56:56.880Z,85.80
2019-05-29T00:59:25.166Z,85.60
2019-05-29T01:01:53.453Z,85.50
2019-05-29T01:04:21.710Z,85.00
2019-05-29T01:06:49.953Z,85.70
2019-05-29T01:09:18.595Z,86.40
2019-05-29T01:11:47.026Z,86.30
2019-05-29T01:14:15.264Z,86.40
2019-05-29T01:16:43.534Z,85.70
2019-05-29T01:19:26.717Z,84.90
2019-05-29T01:21:56.294Z,86.40
2019-05-29T01:24:25.583Z,86.70
2019-05-29T01:26:53.837Z,86.50
2019-05-29T01:29:23.283Z,86.20
2019-05-29T01:31:51.907Z,87.30
2019-05-29T01:34:20.137Z,87.30
2019-05-29T01:36:48.499Z,87.10
2019-05-29T01:39:17.259Z,87.60
2019-05-29T01:41:45.717Z,88.40
2019-05-29T01:44:15.245Z,88.80
2019-05-29T01:46:43.673Z,88.80
2019-05-29T01:49:11.983Z,88.90
2019-05-29T01:51:40.293Z,88.00
2019-05-29T01:54:08.533Z,88.50
2019-05-29T01:56:36.795Z,88.70
2019-05-29T01:59:05.021Z,88.10
2019-05-29T02:01:33.280Z,88.90
2019-05-29T02:04:01.518Z,90.20
2019-05-29T02:06:29.774Z,90.90
2019-05-29T02:08:58.027Z,90.70
2019-05-29T02:11:27.482Z,90.70
2019-05-29T02:13:55.804Z,91.30
2019-05-29T02:16:24.865Z,90.70
2019-05-29T02:18:53.479Z,90.90
2019-05-29T02:21:22.312Z,90.80
2019-05-29T02:23:50.852Z,90.50
2019-05-29T02:26:20.295Z,91.40
2019-05-29T02:28:48.927Z,91.40
2019-05-29T02:31:17.777Z,91.90
2019-05-29T02:33:47.142Z,92.00
2019-05-29T02:36:15.401Z,92.20
2019-05-29T02:38:43.637Z,92.70
2019-05-29T02:41:11.893Z,93.70
2019-05-29T02:43:40.138Z,93.30
2019-05-29T02:46:08.393Z,93.80
2019-05-29T02:48:36.642Z,93.90
2019-05-29T02:51:04.962Z,93.80
2019-05-29T02:53:33.214Z,93.80
2019-05-29T02:56:01.469Z,93.30
2019-05-29T02:58:30.256Z,93.50
2019-05-29T03:00:59.927Z,93.20
2019-05-29T03:03:31.193Z,93.10
2019-05-29T03:05:58.203Z,93.00
2019-05-29T03:08:27.723Z,93.10
2019-05-29T03:10:56.453Z,93.60
2019-05-29T03:13:25.482Z,94.10
2019-05-29T03:16:09.503Z,94.70
2019-05-29T03:18:25.707Z,95.00
2019-05-29T03:20:54.293Z,95.50
2019-05-29T03:23:24.070Z,95.20
2019-05-29T03:25:52.654Z,94.90
2019-05-29T03:28:20.895Z,95.20
2019-05-29T03:30:49.151Z,95.00
2019-05-29T03:33:17.407Z,94.70
2019-05-29T03:35:48.621Z,94.60
2019-05-29T03:38:17.005Z,94.50
2019-05-29T03:40:45.243Z,93.60
2019-05-29T03:43:13.536Z,93.50
2019-05-29T03:45:41.809Z,92.20
2019-05-29T03:48:10.065Z,91.30
2019-05-29T03:50:38.613Z,91.10
2019-05-29T03:53:07.249Z,87.90
2019-05-29T03:55:35.951Z,80.70
2019-05-29T03:58:05.469Z,77.40
2019-05-29T04:00:41.801Z,79.50
2019-05-29T04:03:03.704Z,81.00
2019-05-29T04:05:33.407Z,81.50
2019-05-29T04:08:01.946Z,81.50
2019-05-29T04:10:32.841Z,77.80
2019-05-29T04:13:01.523Z,73.60
2019-05-29T04:15:33.827Z,69.00
2019-05-29T04:18:05.608Z,63.50
2019-05-29T04:20:36.085Z,57.00
2019-05-29T04:23:06.418Z,53.00
2019-05-29T04:25:39.696Z,50.20
2019-05-29T04:28:06.802Z,47.80
2019-05-29T04:30:36.539Z,45.60
2019-05-29T04:33:05.046Z,44.40
2019-05-29T04:35:34.590Z,43.50
2019-05-29T04:38:03.223Z,41.90
2019-05-29T04:40:32.718Z,42.30
2019-05-29T04:43:01.549Z,40.90
2019-05-29T04:45:30.871Z,40.30
2019-05-29T04:47:59.529Z,39.40
2019-05-29T04:50:29.153Z,38.40
2019-05-29T04:52:57.523Z,38.00
2019-05-29T04:55:25.768Z,37.60
2019-05-29T04:57:54.034Z,37.80
2019-05-29T05:00:22.290Z,36.30
2019-05-29T05:02:50.536Z,35.30
2019-05-29T05:05:19.684Z,35.40
2019-05-29T05:07:48.316Z,36.00
2019-05-29T05:10:19.820Z,35.70
2019-05-29T05:12:48.108Z,34.30
2019-05-29T05:15:16.425Z,34.30
2019-05-29T05:17:44.681Z,33.90
2019-05-29T05:20:12.925Z,33.60
2019-05-29T05:22:41.197Z,34.00
2019-05-29T05:25:09.447Z,34.40
2019-05-29T05:27:38.436Z,33.60
2019-05-29T05:30:08.977Z,33.00
2019-05-29T05:32:38.746Z,30.70
2019-05-29T05:35:07.289Z,30.90
2019-05-29T05:37:36.845Z,30.40
2019-05-29T05:40:06.285Z,29.90
2019-05-29T05:42:34.874Z,30.40
2019-05-29T05:45:03.977Z,31.00
2019-05-29T05:47:45.068Z,31.00
2019-05-29T05:50:02.285Z,30.50
2019-05-29T05:52:31.178Z,29.30
2019-05-29T05:54:59.784Z,30.60
2019-05-29T05:57:28.039Z,29.30
2019-05-29T05:59:56.289Z,29.10
2019-05-29T06:02:24.536Z,28.20
2019-05-29T06:04:52.794Z,27.40
2019-05-29T06:07:21.033Z,29.20
2019-05-29T06:09:49.300Z,28.40
2019-05-29T06:12:17.550Z,28.80
2019-05-29T06:14:45.826Z,27.20
2019-05-29T06:17:14.129Z,27.60
2019-05-29T06:19:43.104Z,27.00
2019-05-29T06:22:11.731Z,25.20
2019-05-29T06:24:40.997Z,25.40
2019-05-29T06:27:09.306Z,25.30
2019-05-29T06:29:37.567Z,24.70
2019-05-29T06:32:05.830Z,24.80
2019-05-29T06:34:35.566Z,25.40
2019-05-29T06:37:04.085Z,25.40
2019-05-29T06:39:33.409Z,28.70
2019-05-29T06:42:01.777Z,28.70
2019-05-29T06:44:30.088Z,30.00
2019-05-29T06:46:58.395Z,29.10
2019-05-29T06:49:26.707Z,28.60
2019-05-29T06:51:54.957Z,29.30
2019-05-29T06:54:23.218Z,28.80
2019-05-29T06:56:51.463Z,30.30
2019-05-29T06:59:19.722Z,29.40
2019-05-29T07:01:48.033Z,30.50
2019-05-29T07:04:16.294Z,28.60
2019-05-29T07:06:44.821Z,27.90
2019-05-29T07:09:13.273Z,28.10
2019-05-29T07:11:41.519Z,29.60
2019-05-29T07:14:09.786Z,27.80
2019-05-29T07:16:48.635Z,27.70
2019-05-29T07:19:24.729Z,26.50
2019-05-29T07:21:38.793Z,29.10
2019-05-29T07:24:07.237Z,27.40
2019-05-29T07:26:36.802Z,29.20
2019-05-29T07:29:08.373Z,27.90
2019-05-29T07:31:35.198Z,28.00
2019-05-29T07:34:03.456Z,28.30
2019-05-29T07:36:31.713Z,28.20
2019-05-29T07:39:03.606Z,26.30
2019-05-29T07:41:30.022Z,25.80
2019-05-29T07:43:58.289Z,27.50
2019-05-29T07:46:26.545Z,26.00
2019-05-29T07:48:54.815Z,27.00
2019-05-29T07:51:23.093Z,25.80
2019-05-29T07:53:51.422Z,27.80
2019-05-29T07:56:22.907Z,26.10
2019-05-29T07:59:01.499Z,28.20
2019-05-29T08:01:19.693Z,26.40
2019-05-29T08:03:49.513Z,29.10
2019-05-29T08:06:17.925Z,28.90
2019-05-29T08:08:47.363Z,28.10
2019-05-29T08:11:15.805Z,27.80
2019-05-29T08:13:44.066Z,27.10
2019-05-29T08:16:12.325Z,27.50
2019-05-29T08:18:41.648Z,26.10
2019-05-29T08:21:10.562Z,28.10
2019-05-29T08:23:40.172Z,30.40
2019-05-29T08:26:08.736Z,29.70
2019-05-29T08:28:36.990Z,29.20
2019-05-29T08:31:05.256Z,30.20
2019-05-29T08:33:33.496Z,29.60
2019-05-29T08:36:01.751Z,31.80
2019-05-29T08:38:30.020Z,31.50
2019-05-29T08:40:58.345Z,33.50
2019-05-29T08:43:26.598Z,34.10
2019-05-29T08:45:54.858Z,37.20
2019-05-29T08:48:23.100Z,37.30
2019-05-29T08:50:51.975Z,37.00
2019-05-29T08:53:20.514Z,37.10
2019-05-29T08:55:49.267Z,39.60
2019-05-29T08:58:18.838Z,40.20
2019-05-29T09:00:51.540Z,39.60
2019-05-29T09:03:17.174Z,37.30
2019-05-29T09:05:46.562Z,38.90
2019-05-29T09:08:15.051Z,38.00
2019-05-29T09:10:43.354Z,40.30
2019-05-29T09:13:11.630Z,38.50
2019-05-29T09:15:39.881Z,37.80
2019-05-29T09:18:08.130Z,37.50
2019-05-29T09:21:00.336Z,39.50
2019-05-29T09:23:06.358Z,38.30
2019-05-29T09:25:34.613Z,38.00
2019-05-29T09:28:14.712Z,36.40
2019-05-29T09:30:44.163Z,35.90
2019-05-29T09:33:15.256Z,39.50
2019-05-29T09:35:42.721Z,37.30
2019-05-29T09:38:10.962Z,38.90
2019-05-29T09:40:39.225Z,39.00
2019-05-29T09:43:07.469Z,36.00
2019-05-29T09:45:35.726Z,36.60
2019-05-29T09:48:04.097Z,37.70
2019-05-29T09:50:48.771Z,38.40
2019-05-29T09:53:03.967Z,38.10
2019-05-29T09:55:32.335Z,37.50
2019-05-29T09:58:00.805Z,35.80
2019-05-29T10:00:29.220Z,38.60
2019-05-29T10:02:57.448Z,37.60
2019-05-29T10:05:25.713Z,36.70
2019-05-29T10:07:55.093Z,37.80
2019-05-29T10:10:23.940Z,36.20
2019-05-29T10:12:52.194Z,37.90
2019-05-29T10:15:20.447Z,35.20
2019-05-29T10:17:48.704Z,37.20
2019-05-29T10:20:16.945Z,34.10
2019-05-29T10:22:45.204Z,34.30
2019-05-29T10:25:13.445Z,32.60
2019-05-29T10:27:41.709Z,35.40
2019-05-29T10:30:09.949Z,35.40
2019-05-29T10:32:38.201Z,35.50
2019-05-29T10:35:06.450Z,37.30
2019-05-29T10:37:34.704Z,35.80
2019-05-29T10:40:04.487Z,35.30
2019-05-29T10:42:32.750Z,34.70
2019-05-29T10:45:00.989Z,35.90
2019-05-29T10:47:29.251Z,35.70
2019-05-29T10:49:57.497Z,37.30
2019-05-29T10:52:25.766Z,37.40
2019-05-29T10:54:54.436Z,36.40
2019-05-29T10:57:23.049Z,32.60
2019-05-29T10:59:51.369Z,31.70
2019-05-29T11:02:19.618Z,36.20
2019-05-29T11:04:52.106Z,36.00
2019-05-29T11:07:17.845Z,33.80
2019-05-29T11:09:46.966Z,35.40
2019-05-29T11:12:16.103Z,33.20
2019-05-29T11:14:44.421Z,33.90
2019-05-29T11:17:12.685Z,38.70
2019-05-29T11:19:40.929Z,38.70
2019-05-29T11:22:25.217Z,37.00
2019-05-29T11:24:40.192Z,34.90
2019-05-29T11:27:08.438Z,37.60
2019-05-29T11:29:36.692Z,38.70
2019-05-29T11:32:04.959Z,39.80
2019-05-29T11:34:33.267Z,36.70
2019-05-29T11:37:02.489Z,36.30
2019-05-29T11:39:31.057Z,36.80
2019-05-29T11:41:59.321Z,33.50
2019-05-29T11:44:27.576Z,35.20
2019-05-29T11:46:56.147Z,32.20
2019-05-29T11:49:24.556Z,35.40
2019-05-29T11:51:53.790Z,33.90
2019-05-29T11:54:22.824Z,31.50
2019-05-29T11:56:52.269Z,30.30
2019-05-29T11:59:21.090Z,32.30
2019-05-29T12:01:50.882Z,30.40
2019-05-29T12:04:26.242Z,32.00
2019-05-29T12:06:49.310Z,32.90
2019-05-29T12:09:31.495Z,35.70
2019-05-29T12:11:47.513Z,33.60
2019-05-29T12:14:15.773Z,33.50
2019-05-29T12:16:44.022Z,35.20
2019-05-29T12:19:12.293Z,35.00
2019-05-29T12:21:42.701Z,36.70
2019-05-29T12:24:10.521Z,37.50
2019-05-29T12:26:38.769Z,36.20
2019-05-29T12:29:11.492Z,34.50
2019-05-29T12:31:37.063Z,34.20
2019-05-29T12:34:17.938Z,32.40
2019-05-29T12:36:35.319Z,30.70
2019-05-29T12:39:05.445Z,31.00
2019-05-29T12:41:33.696Z,33.30
2019-05-29T12:44:01.940Z,31.80
2019-05-29T12:46:30.192Z,31.00
2019-05-29T12:48:59.458Z,30.90
2019-05-29T12:51:27.791Z,32.10
2019-05-29T12:53:56.110Z,31.50
2019-05-29T12:56:24.358Z,33.50
2019-05-29T12:58:54.060Z,32.30
2019-05-29T13:01:22.558Z,30.90
2019-05-29T13:03:50.874Z,30.80
2019-05-29T13:06:19.121Z,29.60
2019-05-29T13:08:47.373Z,30.10
2019-05-29T13:11:15.628Z,32.50
2019-05-29T13:13:43.885Z,32.00
2019-05-29T13:16:12.138Z,31.10
2019-05-29T13:18:40.398Z,34.10
2019-05-29T13:21:08.639Z,33.70
2019-05-29T13:23:45.138Z,34.20
2019-05-29T13:26:06.852Z,34.00
2019-05-29T13:28:35.114Z,33.90
2019-05-29T13:31:04.577Z,34.20
2019-05-29T13:33:33.337Z,35.80
2019-05-29T13:36:02.209Z,39.30
2019-05-29T13:38:30.746Z,38.10
2019-05-29T13:41:00.286Z,37.50
2019-05-29T13:43:28.921Z,35.70
2019-05-29T13:45:58.157Z,34.40
2019-05-29T13:48:26.908Z,32.10
2019-05-29T13:50:55.159Z,32.60
2019-05-29T13:53:23.409Z,35.90
2019-05-29T13:55:51.770Z,33.50
2019-05-29T13:58:20.014Z,31.70
2019-05-29T14:00:48.254Z,31.00
2019-05-29T14:03:16.510Z,35.50
2019-05-29T14:05:44.763Z,33.80
2019-05-29T14:08:13.017Z,35.00
2019-05-29T14:10:41.302Z,34.60
2019-05-29T14:13:09.596Z,31.60
2019-05-29T14:15:37.843Z,31.20
2019-05-29T14:18:07.016Z,34.20
2019-05-29T14:20:35.540Z,30.10
2019-05-29T14:23:05.237Z,31.20
2019-05-29T14:25:33.861Z,29.80
2019-05-29T14:28:02.665Z,31.00
2019-05-29T14:30:31.162Z,31.70
2019-05-29T14:32:59.465Z,32.10
2019-05-29T14:35:27.731Z,35.40
2019-05-29T14:37:55.978Z,31.40
2019-05-29T14:40:24.230Z,34.00
2019-05-29T14:42:52.480Z,33.80
2019-05-29T14:45:20.738Z,33.10
2019-05-29T14:47:48.990Z,32.50
2019-05-29T14:50:17.409Z,32.30
2019-05-29T14:52:45.670Z,32.90
2019-05-29T14:55:17.665Z,30.80
2019-05-29T14:57:43.889Z,30.70
2019-05-29T15:00:23.137Z,28.90
2019-05-29T15:02:43.363Z,32.60
2019-05-29T15:05:12.304Z,31.90
2019-05-29T15:07:41.154Z,31.10
2019-05-29T15:10:22.657Z,28.30
2019-05-29T15:12:39.487Z,28.30
2019-05-29T15:15:08.822Z,29.80
2019-05-29T15:17:37.540Z,29.30
2019-05-29T15:20:09.715Z,30.20
2019-05-29T15:22:38.491Z,32.20
2019-05-29T15:25:17.064Z,33.40
2019-05-29T15:27:37.355Z,33.50
2019-05-29T15:30:08.838Z,32.30
2019-05-29T15:32:37.911Z,33.20
2019-05-29T15:35:13.761Z,32.60
2019-05-29T15:37:38.297Z,34.20
2019-05-29T15:40:10.724Z,36.10
2019-05-29T15:42:39.295Z,33.70
2019-05-29T15:45:07.824Z,33.80
2019-05-29T15:47:36.070Z,35.40
2019-05-29T15:50:11.367Z,35.60
2019-05-29T15:52:39.890Z,37.80
2019-05-29T15:55:21.200Z,35.20
2019-05-29T15:57:38.193Z,33.30
2019-05-29T16:00:09.193Z,36.10
2019-05-29T16:02:39.374Z,34.90
2019-05-29T16:05:08.747Z,33.40
2019-05-29T16:07:37.258Z,35.30
2019-05-29T16:10:08.339Z,36.00
2019-05-29T16:12:36.634Z,34.90
2019-05-29T16:15:06.538Z,33.10
2019-05-29T16:17:34.791Z,33.40
2019-05-29T16:20:03.962Z,32.70
2019-05-29T16:22:32.251Z,32.70
2019-05-29T16:25:00.509Z,31.80
2019-05-29T16:27:31.032Z,33.30
2019-05-29T16:29:58.738Z,33.90
2019-05-29T16:32:26.978Z,34.10
2019-05-29T16:34:56.003Z,34.60
2019-05-29T16:37:24.248Z,34.80
2019-05-29T16:39:52.498Z,34.30
2019-05-29T16:42:22.035Z,35.20
2019-05-29T16:44:50.632Z,33.90
2019-05-29T16:47:18.917Z,35.10
2019-05-29T16:49:47.162Z,35.20
2019-05-29T16:52:16.727Z,35.00
2019-05-29T16:54:45.480Z,33.60
2019-05-29T16:57:15.019Z,33.60
2019-05-29T16:59:43.645Z,35.20
2019-05-29T17:02:13.508Z,35.20
2019-05-29T17:04:42.345Z,34.60
2019-05-29T17:07:10.606Z,35.20
2019-05-29T17:09:38.862Z,35.20
2019-05-29T17:12:07.117Z,36.00
2019-05-29T17:14:35.361Z,35.40
2019-05-29T17:17:03.629Z,37.00
2019-05-29T17:19:31.886Z,37.80
2019-05-29T17:22:00.211Z,36.40
2019-05-29T17:24:28.448Z,36.50
2019-05-29T17:26:56.721Z,35.20
2019-05-29T17:29:25.150Z,36.50
2019-05-29T17:31:53.807Z,35.10
2019-05-29T17:34:23.211Z,37.40
2019-05-29T17:36:51.790Z,39.30
2019-05-29T17:39:21.364Z,40.20
2019-05-29T17:41:49.771Z,39.60
2019-05-29T17:44:19.305Z,38.70
2019-05-29T17:46:47.768Z,38.40
2019-05-29T17:49:16.027Z,38.60
2019-05-29T17:51:44.305Z,38.30
2019-05-29T17:54:12.545Z,38.90
2019-05-29T17:56:40.813Z,39.00
2019-05-29T17:59:09.077Z,38.50
2019-05-29T18:01:37.337Z,38.90
2019-05-29T18:04:06.461Z,39.60
2019-05-29T18:06:34.806Z,40.00
2019-05-29T18:09:04.282Z,40.20
2019-05-29T18:11:32.615Z,41.10
2019-05-29T18:14:05.135Z,41.20
2019-05-29T18:16:30.846Z,40.00
2019-05-29T18:18:59.090Z,39.20
2019-05-29T18:21:27.825Z,39.20
2019-05-29T18:23:56.170Z,40.50
2019-05-29T18:26:24.425Z,41.10
2019-05-29T18:28:52.669Z,41.10
2019-05-29T18:31:20.919Z,40.70
2019-05-29T18:33:49.169Z,40.40
2019-05-29T18:36:17.420Z,41.70
2019-05-29T18:38:45.678Z,41.40
2019-05-29T18:41:13.934Z,41.30
2019-05-29T18:43:42.225Z,42.90
2019-05-29T18:46:10.657Z,44.10
2019-05-29T18:48:42.037Z,43.60
2019-05-29T18:51:10.279Z,43.20
2019-05-29T18:53:38.762Z,44.20
2019-05-29T18:56:07.122Z,43.70
2019-05-29T18:58:35.395Z,42.60
2019-05-29T19:01:04.478Z,42.80
2019-05-29T19:03:32.777Z,42.30
2019-05-29T19:06:01.046Z,42.80
2019-05-29T19:08:29.753Z,43.50
2019-05-29T19:10:58.134Z,44.00
2019-05-29T19:13:26.389Z,44.40
2019-05-29T19:15:54.643Z,44.30
2019-05-29T19:18:24.055Z,43.80
2019-05-29T19:20:52.525Z,43.50
2019-05-29T19:23:20.786Z,43.90
2019-05-29T19:25:49.035Z,43.90
2019-05-29T19:28:17.286Z,44.00
2019-05-29T19:30:45.532Z,44.10
2019-05-29T19:33:13.793Z,44.50
2019-05-29T19:35:42.050Z,44.40
2019-05-29T19:38:10.305Z,45.00
2019-05-29T19:40:38.628Z,44.80
2019-05-29T19:43:06.885Z,45.10
2019-05-29T19:45:35.125Z,46.00
2019-05-29T19:48:03.386Z,46.50
2019-05-29T19:50:32.842Z,47.20
2019-05-29T19:53:01.160Z,47.80
2019-05-29T19:55:33.159Z,48.70
2019-05-29T19:57:59.430Z,48.50
2019-05-29T20:00:28.035Z,49.70
2019-05-29T20:02:56.446Z,50.50
2019-05-29T20:05:24.699Z,50.80
2019-05-29T20:07:52.948Z,51.50
2019-05-29T20:10:21.189Z,53.50
2019-05-29T20:12:49.455Z,52.60
2019-05-29T20:15:17.706Z,51.80
2019-05-29T20:17:45.962Z,52.30
2019-05-29T20:20:14.206Z,51.60
2019-05-29T20:22:42.509Z,51.60
2019-05-29T20:25:13.711Z,51.80
2019-05-29T20:27:40.814Z,51.60
2019-05-29T20:30:17.075Z,51.80
2019-05-29T20:32:46.381Z,52.20
2019-05-29T20:35:16.577Z,52.10
2019-05-29T20:37:45.789Z,53.10
2019-05-29T20:40:14.109Z,53.30
2019-05-29T20:42:42.561Z,53.20
2019-05-29T20:45:10.935Z,54.20
2019-05-29T20:47:39.944Z,53.90
2019-05-29T20:50:08.755Z,55.40
2019-05-29T20:52:37.418Z,55.50
2019-05-29T20:55:05.984Z,55.50
2019-05-29T20:57:34.286Z,55.20
2019-05-29T21:00:02.555Z,56.60
2019-05-29T21:02:31.958Z,57.50
2019-05-29T21:05:00.333Z,56.80
2019-05-29T21:07:28.586Z,55.80
2019-05-29T21:09:56.842Z,57.30
2019-05-29T21:12:25.081Z,58.80
2019-05-29T21:14:53.337Z,58.30
2019-05-29T21:17:23.084Z,57.30
2019-05-29T21:19:51.355Z,57.50
2019-05-29T21:22:19.593Z,57.80
2019-05-29T21:24:59.903Z,58.00
2019-05-29T21:27:17.854Z,58.30
2019-05-29T21:29:46.109Z,58.00
2019-05-29T21:32:14.359Z,58.70
2019-05-29T21:34:42.613Z,59.00
2019-05-29T21:37:10.858Z,58.70
2019-05-29T21:39:40.224Z,62.90
2019-05-29T21:42:08.842Z,65.00
2019-05-29T21:44:37.106Z,66.80
2019-05-29T21:47:05.346Z,67.90
2019-05-29T21:49:33.605Z,70.00
2019-05-29T21:52:01.851Z,71.30
2019-05-29T21:54:30.129Z,73.10
2019-05-29T21:56:58.373Z,73.80
2019-05-29T21:59:26.637Z,76.70
2019-05-29T22:01:54.869Z,78.40
2019-05-29T22:04:23.139Z,79.00
2019-05-29T22:06:51.365Z,79.70
2019-05-29T22:09:19.617Z,79.80
2019-05-29T22:11:47.865Z,80.10
2019-05-29T22:14:16.117Z,80.10
2019-05-29T22:16:44.358Z,80.50
2019-05-29T22:19:12.617Z,80.80
2019-05-29T22:21:40.861Z,81.00
2019-05-29T22:24:09.121Z,81.60
2019-05-29T22:26:37.365Z,80.50
2019-05-29T22:29:17.098Z,80.90
2019-05-29T22:31:35.582Z,80.80
2019-05-29T22:34:03.832Z,82.10
2019-05-29T22:36:32.085Z,81.40
2019-05-29T22:39:01.710Z,82.60
2019-05-29T22:41:30.149Z,82.50
2019-05-29T22:43:59.626Z,81.80
2019-05-29T22:46:28.117Z,83.30
2019-05-29T22:48:56.357Z,85.50
2019-05-29T22:51:24.606Z,86.90
2019-05-29T22:53:53.931Z,87.00
2019-05-29T22:56:22.586Z,86.50
2019-05-29T22:58:51.979Z,86.90
2019-05-29T23:01:20.553Z,86.80
2019-05-29T23:03:48.802Z,87.10
2019-05-29T23:06:17.069Z,85.80
2019-05-29T23:08:45.313Z,85.30
2019-05-29T23:11:14.983Z,85.20
2019-05-29T23:13:43.225Z,85.80
2019-05-29T23:16:11.478Z,86.90
2019-05-29T23:18:39.709Z,86.50
2019-05-29T23:21:07.968Z,85.90
2019-05-29T23:23:36.205Z,86.10
2019-05-29T23:26:04.470Z,84.60
2019-05-29T23:28:33.083Z,84.00
2019-05-29T23:31:01.335Z,83.10
2019-05-29T23:33:30.208Z,83.90
2019-05-29T23:35:59.101Z,84.50
2019-05-29T23:38:27.465Z,85.70
2019-05-29T23:40:55.727Z,86.20
2019-05-29T23:43:23.978Z,86.40
2019-05-29T23:45:53.264Z,85.70
2019-05-29T23:48:21.548Z,85.70
2019-05-29T23:50:49.817Z,85.40
2019-05-29T23:53:18.049Z,85.20
2019-05-29T23:55:46.304Z,84.90
2019-05-29T23:58:14.545Z,85.00
